Flight Track Log - Related Links

Times and Time Zones

All times are in EDT time to prevent confusion due to time zone crossing. See the DAL3688 flight status page for this flight to view local times or setup timezone preferences in your user account.

Time Position Orientation Groundspeed Altitude Reporting Facility
EDT Latitude Longitude Course Direction KTS MPH feet Rate Location/Type
Wed 10:45:35 AM 42.2250 -83.3394 23° Northeast 142 163 1,400  Level Cleveland Center
Wed 10:46:18 AM 42.2567 -83.3214 23° Northeast 203 234 2,600 2,135 Climbing Cleveland Center
Wed 10:47:19 AM 42.3119 -83.2758 31° Northeast 261 300 5,100 2,361 Climbing Cleveland Center
Wed 10:48:20 AM 42.3742 -83.2000 42° Northeast 315 362 7,400 2,262 Climbing Cleveland Center
Wed 10:49:21 AM 42.3642 -83.0842 97° East 330 380 9,700 1,431 Climbing Cleveland Center
Wed 10:50:09 AM 42.3397 -82.9653 106° East 375 432 10,000 269 Climbing Cleveland Center
Wed 10:50:28 AM 42.3297 -82.9339 113° Southeast 385 443 10,000 900 Level Cleveland Center
Wed 10:51:09 AM 42.3069 -82.8264 106° East 382 440 10,900 1,723 Climbing Cleveland Center
Wed 10:52:09 AM 42.2781 -82.6964 107° East 428 493 12,900 1,450 Climbing Cleveland Center
Wed 10:53:09 AM 42.2453 -82.5494 107° East 417 480 13,800 1,450 Climbing Cleveland Center
Wed 10:54:09 AM 42.2167 -82.3914 104° East 417 480 15,800 1,250 Climbing Cleveland Center
Wed 10:55:09 AM 42.2067 -82.2314 95° East 423 487 16,300 750 Climbing Cleveland Center
Wed 10:56:09 AM 42.1983 -82.0714 94° East 428 493 17,300 1,400 Climbing Cleveland Center
Wed 10:57:09 AM 42.1689 -81.9139 104° East 428 493 19,100 1,800 Climbing Cleveland Center
Wed 10:58:09 AM 42.0825 -81.8142 139° Southeast 392 451 20,900 1,500 Climbing Cleveland Center
Wed 10:59:09 AM 41.9939 -81.7147 140° Southeast 398 458 22,100 1,350 Climbing Cleveland Center
Wed 11:00:09 AM 41.9053 -81.6097 139° Southeast 421 484 23,600 1,700 Climbing Cleveland Center
Wed 11:01:09 AM 41.8186 -81.5108 140° Southeast 426 490 25,500 1,400 Climbing Cleveland Center
Wed 11:02:09 AM 41.7400 -81.4181 139° Southeast 426 490 26,400 750 Climbing Cleveland Center
Wed 11:03:09 AM 41.6469 -81.3139 140° Southeast 431 496 27,000 300 Climbing Cleveland Center
Wed 11:04:09 AM 41.5497 -81.2047 140° Southeast 437 503 27,000  Level Cleveland Center
Wed 11:05:09 AM 41.4775 -81.0625 124° Southeast 461 531 27,000  Level Cleveland Center
Wed 11:06:09 AM 41.4092 -80.8906 118° Southeast 469 540 27,000  Level Cleveland Center
Wed 11:07:09 AM 41.3469 -80.7297 117° Southeast 480 552 27,000  Level Cleveland Center
Wed 11:08:09 AM 41.2844 -80.5719 118° Southeast 480 552 27,000  Level Cleveland Center
Wed 11:09:09 AM 41.2239 -80.4147 117° Southeast 480 552 27,000  Level Cleveland Center
Wed 11:10:09 AM 41.1694 -80.2714 117° Southeast 480 552 27,000  Level Cleveland Center
Wed 11:11:09 AM 41.1064 -80.1119 118° Southeast 480 552 27,000  Level Cleveland Center
Wed 11:12:09 AM 41.0431 -79.9581 119° Southeast 480 552 27,000  Level Cleveland Center
Wed 11:13:09 AM 40.9797 -79.8019 118° Southeast 480 552 27,000 -400 Level Cleveland Center
Wed 11:14:09 AM 40.9181 -79.6461 118° Southeast 480 552 26,200 -1,150 Descending Cleveland Center
Wed 11:15:09 AM 40.8497 -79.4797 118° Southeast 475 547 24,700 -1,500 Descending Cleveland Center
Wed 11:16:09 AM 40.7878 -79.3272 118° Southeast 475 547 23,200 -1,500 Descending Cleveland Center
Wed 11:17:09 AM 40.7256 -79.1775 119° Southeast 475 547 21,700 -1,500 Descending Cleveland Center
Wed 11:18:09 AM 40.6633 -79.0283 119° Southeast 469 540 20,200 -1,400 Descending Cleveland Center
Wed 11:19:09 AM 40.6050 -78.8958 120° Southeast 457 526 18,900 -1,550 Descending Cleveland Center
Wed 11:20:09 AM 40.5442 -78.7306 116° Southeast 457 526 17,100 -1,650 Descending Cleveland Center
Wed 11:21:09 AM 40.5228 -78.5728 100° East 449 517 15,600 -1,500 Descending Cleveland Center
Wed 11:22:09 AM 40.4989 -78.4178 101° East 438 504 14,100 -1,395 Descending Cleveland Center
Wed 11:23:18 AM 40.4783 -78.2617 100° East 430 495 12,600 -1,429 Descending New York Center
Wed 11:24:15 AM 40.4564 -78.1117 101° East 430 495 11,100 -814 Descending New York Center
Wed 11:25:16 AM 40.4361 -77.9678 100° East 417 480 11,000 -50 Descending New York Center
Wed 11:26:16 AM 40.4156 -77.8264 101° East 403 464 11,000 -298 Level New York Center
Wed 11:27:17 AM 40.3981 -77.6992 100° East 380 437 10,400 -942 Descending New York Center
Wed 11:28:17 AM 40.3761 -77.5717 103° East 339 390 9,100 -700 Descending New York Center
Wed 11:29:17 AM 40.3592 -77.4667 102° East 327 376 9,000 -50 Descending New York Center
Wed 11:30:17 AM 40.3244 -77.3461 111° Southeast 322 371 9,000  Level New York Center
Wed 11:31:16 AM 40.2792 -77.2575 124° Southeast 322 371 9,000 -101 Level New York Center
Wed 11:32:16 AM 40.2247 -77.1461 123° Southeast 327 376 8,800 -942 Descending New York Center
Wed 11:33:17 AM 40.1814 -77.0608 124° Southeast 319 367 7,100 -1,800 Descending New York Center
Wed 11:34:16 AM 40.1456 -76.9489 113° Southeast 310 357 5,200 -1,800 Descending New York Center
Wed 11:35:17 AM 40.1317 -76.8581 101° East 291 335 3,500 -1,537 Descending New York Center
Wed 11:36:17 AM 40.1178 -76.7617 101° East 265 305 2,100 -744 Descending New York Center
Wed 11:37:18 AM 40.1378 -76.6928 69° East 222 255 2,000 -101 Descending New York Center
Wed 11:38:16 AM 40.1678 -76.6383 54° Northeast 188 216 1,900 4,538 Descending New York Center
Wed 11:39:17 AM 40.1978 -76.5783 57° Northeast 188 216 11,000 4,512 Climbing New York Center
Wed 11:40:17 AM 40.2256 -76.5208 58° Northeast 188 216 11,000  Level New York Center

Login

Don't have an account? Register now (free) for customized features, flight alerts, and more!